sensor_id;sensor_type;location;lat;lon;timestamp;P1;durP1;ratioP1;P2;durP2;ratioP2
48403;SDS011;34202;52.536;6.042;2023-06-19T00:02:25;9.00;;;7.00;;
48403;SDS011;34202;52.536;6.042;2023-06-19T00:07:26;8.50;;;7.20;;
48403;SDS011;34202;52.536;6.042;2023-06-19T00:12:26;8.80;;;6.70;;
48403;SDS011;34202;52.536;6.042;2023-06-19T00:17:27;11.80;;;6.70;;
48403;SDS011;34202;52.536;6.042;2023-06-19T00:22:27;8.30;;;6.60;;
48403;SDS011;34202;52.536;6.042;2023-06-19T00:27:28;8.60;;;6.40;;
48403;SDS011;34202;52.536;6.042;2023-06-19T00:32:28;7.00;;;6.30;;
48403;SDS011;34202;52.536;6.042;2023-06-19T00:37:29;7.40;;;6.70;;
48403;SDS011;34202;52.536;6.042;2023-06-19T00:42:32;9.90;;;6.50;;
48403;SDS011;34202;52.536;6.042;2023-06-19T00:47:33;7.80;;;7.10;;
48403;SDS011;34202;52.536;6.042;2023-06-19T00:52:34;7.00;;;6.30;;
48403;SDS011;34202;52.536;6.042;2023-06-19T00:57:34;7.50;;;6.80;;
48403;SDS011;34202;52.536;6.042;2023-06-19T01:02:36;7.30;;;6.10;;
48403;SDS011;34202;52.536;6.042;2023-06-19T01:12:42;7.00;;;6.20;;
48403;SDS011;34202;52.536;6.042;2023-06-19T01:17:50;7.10;;;6.00;;
48403;SDS011;34202;52.536;6.042;2023-06-19T01:22:51;5.80;;;5.30;;
48403;SDS011;34202;52.536;6.042;2023-06-19T01:27:51;6.70;;;6.00;;
48403;SDS011;34202;52.536;6.042;2023-06-19T01:33:00;8.10;;;6.50;;
48403;SDS011;34202;52.536;6.042;2023-06-19T01:38:06;6.70;;;5.80;;
48403;SDS011;34202;52.536;6.042;2023-06-19T01:43:08;6.50;;;5.90;;
48403;SDS011;34202;52.536;6.042;2023-06-19T01:48:10;6.30;;;5.60;;
48403;SDS011;34202;52.536;6.042;2023-06-19T01:53:11;6.90;;;6.20;;
48403;SDS011;34202;52.536;6.042;2023-06-19T01:58:11;7.20;;;6.40;;
48403;SDS011;34202;52.536;6.042;2023-06-19T02:03:11;9.80;;;5.90;;
48403;SDS011;34202;52.536;6.042;2023-06-19T02:08:12;6.30;;;5.50;;
48403;SDS011;34202;52.536;6.042;2023-06-19T02:13:12;6.40;;;5.80;;
48403;SDS011;34202;52.536;6.042;2023-06-19T02:18:13;7.20;;;5.80;;
48403;SDS011;34202;52.536;6.042;2023-06-19T02:23:13;6.60;;;6.00;;
48403;SDS011;34202;52.536;6.042;2023-06-19T02:28:14;6.20;;;5.10;;
48403;SDS011;34202;52.536;6.042;2023-06-19T02:33:14;4.90;;;4.50;;
48403;SDS011;34202;52.536;6.042;2023-06-19T02:38:14;5.40;;;4.30;;
48403;SDS011;34202;52.536;6.042;2023-06-19T02:43:15;6.20;;;4.40;;
48403;SDS011;34202;52.536;6.042;2023-06-19T02:48:15;9.00;;;3.80;;
48403;SDS011;34202;52.536;6.042;2023-06-19T02:53:16;4.40;;;4.00;;
48403;SDS011;34202;52.536;6.042;2023-06-19T02:58:16;7.80;;;4.80;;
48403;SDS011;34202;52.536;6.042;2023-06-19T03:03:17;4.00;;;3.50;;
48403;SDS011;34202;52.536;6.042;2023-06-19T03:08:17;5.80;;;4.20;;
48403;SDS011;34202;52.536;6.042;2023-06-19T03:13:17;4.50;;;4.10;;
48403;SDS011;34202;52.536;6.042;2023-06-19T03:18:18;8.60;;;4.30;;
48403;SDS011;34202;52.536;6.042;2023-06-19T03:23:18;6.40;;;4.20;;
48403;SDS011;34202;52.536;6.042;2023-06-19T03:28:18;9.90;;;3.60;;
48403;SDS011;34202;52.536;6.042;2023-06-19T03:33:19;4.90;;;3.20;;
48403;SDS011;34202;52.536;6.042;2023-06-19T03:38:19;5.80;;;3.10;;
48403;SDS011;34202;52.536;6.042;2023-06-19T03:43:20;3.70;;;3.30;;
48403;SDS011;34202;52.536;6.042;2023-06-19T03:48:20;4.00;;;3.20;;
48403;SDS011;34202;52.536;6.042;2023-06-19T03:53:20;3.40;;;3.10;;
48403;SDS011;34202;52.536;6.042;2023-06-19T03:58:21;3.90;;;3.10;;
48403;SDS011;34202;52.536;6.042;2023-06-19T04:03:21;5.60;;;3.50;;
48403;SDS011;34202;52.536;6.042;2023-06-19T04:08:22;4.20;;;3.40;;
48403;SDS011;34202;52.536;6.042;2023-06-19T04:13:23;5.80;;;3.70;;
48403;SDS011;34202;52.536;6.042;2023-06-19T04:18:25;4.90;;;3.20;;
48403;SDS011;34202;52.536;6.042;2023-06-19T04:23:27;3.90;;;3.60;;
48403;SDS011;34202;52.536;6.042;2023-06-19T04:28:28;3.30;;;3.00;;
48403;SDS011;34202;52.536;6.042;2023-06-19T04:33:28;5.40;;;3.60;;
48403;SDS011;34202;52.536;6.042;2023-06-19T04:38:29;6.80;;;3.40;;
48403;SDS011;34202;52.536;6.042;2023-06-19T04:43:29;5.90;;;4.30;;
48403;SDS011;34202;52.536;6.042;2023-06-19T04:48:30;6.20;;;4.00;;
48403;SDS011;34202;52.536;6.042;2023-06-19T04:53:31;7.20;;;3.90;;
48403;SDS011;34202;52.536;6.042;2023-06-19T04:58:31;4.50;;;4.10;;
48403;SDS011;34202;52.536;6.042;2023-06-19T05:03:31;4.10;;;3.70;;
48403;SDS011;34202;52.536;6.042;2023-06-19T05:08:32;4.60;;;3.60;;
48403;SDS011;34202;52.536;6.042;2023-06-19T05:13:32;8.60;;;4.50;;
48403;SDS011;34202;52.536;6.042;2023-06-19T05:18:32;4.80;;;4.10;;
48403;SDS011;34202;52.536;6.042;2023-06-19T05:23:33;5.50;;;5.00;;
48403;SDS011;34202;52.536;6.042;2023-06-19T05:28:34;8.40;;;6.90;;
48403;SDS011;34202;52.536;6.042;2023-06-19T05:33:34;10.00;;;6.50;;
48403;SDS011;34202;52.536;6.042;2023-06-19T05:38:34;8.90;;;6.90;;
48403;SDS011;34202;52.536;6.042;2023-06-19T05:43:35;8.00;;;6.20;;
48403;SDS011;34202;52.536;6.042;2023-06-19T05:48:35;13.10;;;8.00;;
48403;SDS011;34202;52.536;6.042;2023-06-19T05:53:36;8.50;;;7.50;;
48403;SDS011;34202;52.536;6.042;2023-06-19T05:58:38;9.30;;;7.10;;
48403;SDS011;34202;52.536;6.042;2023-06-19T06:03:39;10.40;;;7.10;;
48403;SDS011;34202;52.536;6.042;2023-06-19T06:08:39;8.50;;;7.70;;
48403;SDS011;34202;52.536;6.042;2023-06-19T06:13:40;9.30;;;7.60;;
48403;SDS011;34202;52.536;6.042;2023-06-19T06:18:40;9.70;;;8.00;;
48403;SDS011;34202;52.536;6.042;2023-06-19T06:23:41;8.10;;;7.30;;
48403;SDS011;34202;52.536;6.042;2023-06-19T06:28:41;12.00;;;7.60;;
48403;SDS011;34202;52.536;6.042;2023-06-19T06:33:42;7.50;;;6.80;;
48403;SDS011;34202;52.536;6.042;2023-06-19T06:38:42;6.30;;;5.60;;
48403;SDS011;34202;52.536;6.042;2023-06-19T06:43:42;4.90;;;4.50;;
48403;SDS011;34202;52.536;6.042;2023-06-19T06:48:43;6.60;;;6.00;;
48403;SDS011;34202;52.536;6.042;2023-06-19T06:53:43;7.70;;;7.00;;
48403;SDS011;34202;52.536;6.042;2023-06-19T06:58:44;7.00;;;6.10;;
48403;SDS011;34202;52.536;6.042;2023-06-19T07:03:47;6.00;;;5.50;;
48403;SDS011;34202;52.536;6.042;2023-06-19T07:08:47;6.00;;;5.40;;
48403;SDS011;34202;52.536;6.042;2023-06-19T07:13:47;6.20;;;5.60;;
48403;SDS011;34202;52.536;6.042;2023-06-19T07:18:48;8.00;;;6.50;;
48403;SDS011;34202;52.536;6.042;2023-06-19T07:23:49;6.30;;;4.90;;
48403;SDS011;34202;52.536;6.042;2023-06-19T07:28:50;6.50;;;5.90;;
48403;SDS011;34202;52.536;6.042;2023-06-19T07:33:50;7.40;;;6.10;;
48403;SDS011;34202;52.536;6.042;2023-06-19T07:38:51;8.30;;;7.60;;
48403;SDS011;34202;52.536;6.042;2023-06-19T07:43:52;8.50;;;7.70;;
48403;SDS011;34202;52.536;6.042;2023-06-19T07:48:52;7.10;;;6.40;;
48403;SDS011;34202;52.536;6.042;2023-06-19T07:53:52;7.30;;;5.30;;
48403;SDS011;34202;52.536;6.042;2023-06-19T07:58:53;6.60;;;5.70;;
48403;SDS011;34202;52.536;6.042;2023-06-19T08:03:53;5.70;;;4.90;;
48403;SDS011;34202;52.536;6.042;2023-06-19T08:08:53;6.20;;;5.70;;
48403;SDS011;34202;52.536;6.042;2023-06-19T08:13:54;9.00;;;6.70;;
48403;SDS011;34202;52.536;6.042;2023-06-19T08:18:55;6.50;;;5.90;;
48403;SDS011;34202;52.536;6.042;2023-06-19T08:23:55;6.90;;;6.30;;
48403;SDS011;34202;52.536;6.042;2023-06-19T08:28:56;7.30;;;6.60;;
48403;SDS011;34202;52.536;6.042;2023-06-19T08:33:56;7.40;;;5.50;;
48403;SDS011;34202;52.536;6.042;2023-06-19T08:38:56;7.50;;;4.30;;
48403;SDS011;34202;52.536;6.042;2023-06-19T08:43:57;11.00;;;5.20;;
48403;SDS011;34202;52.536;6.042;2023-06-19T08:48:58;5.40;;;4.90;;
48403;SDS011;34202;52.536;6.042;2023-06-19T08:54:01;6.20;;;5.60;;
48403;SDS011;34202;52.536;6.042;2023-06-19T08:59:11;7.10;;;5.40;;
48403;SDS011;34202;52.536;6.042;2023-06-19T09:04:13;7.80;;;5.40;;
48403;SDS011;34202;52.536;6.042;2023-06-19T09:09:14;8.60;;;7.10;;
48403;SDS011;34202;52.536;6.042;2023-06-19T09:14:15;6.30;;;5.60;;
48403;SDS011;34202;52.536;6.042;2023-06-19T09:19:20;7.00;;;5.40;;
48403;SDS011;34202;52.536;6.042;2023-06-19T09:24:20;7.30;;;6.00;;
48403;SDS011;34202;52.536;6.042;2023-06-19T09:29:21;7.30;;;5.60;;
48403;SDS011;34202;52.536;6.042;2023-06-19T09:34:21;9.30;;;7.20;;
48403;SDS011;34202;52.536;6.042;2023-06-19T09:39:22;7.90;;;6.70;;
48403;SDS011;34202;52.536;6.042;2023-06-19T09:44:27;10.10;;;7.20;;
48403;SDS011;34202;52.536;6.042;2023-06-19T09:49:29;9.10;;;7.60;;
48403;SDS011;34202;52.536;6.042;2023-06-19T09:54:32;10.00;;;7.80;;
48403;SDS011;34202;52.536;6.042;2023-06-19T09:59:33;13.50;;;8.40;;
48403;SDS011;34202;52.536;6.042;2023-06-19T10:04:53;11.20;;;7.70;;
48403;SDS011;34202;52.536;6.042;2023-06-19T10:15:10;9.60;;;6.90;;
48403;SDS011;34202;52.536;6.042;2023-06-19T10:25:22;8.80;;;7.50;;
48403;SDS011;34202;52.536;6.042;2023-06-19T10:30:24;7.90;;;7.10;;
48403;SDS011;34202;52.536;6.042;2023-06-19T10:35:25;10.40;;;8.10;;
48403;SDS011;34202;52.536;6.042;2023-06-19T10:40:25;8.50;;;7.70;;
48403;SDS011;34202;52.536;6.042;2023-06-19T10:45:25;8.60;;;6.40;;
48403;SDS011;34202;52.536;6.042;2023-06-19T10:50:28;8.70;;;6.50;;
48403;SDS011;34202;52.536;6.042;2023-06-19T10:55:29;9.50;;;7.70;;
48403;SDS011;34202;52.536;6.042;2023-06-19T11:00:32;9.70;;;6.20;;
48403;SDS011;34202;52.536;6.042;2023-06-19T11:05:33;10.10;;;7.20;;
48403;SDS011;34202;52.536;6.042;2023-06-19T11:10:34;9.70;;;8.00;;
48403;SDS011;34202;52.536;6.042;2023-06-19T11:15:34;10.30;;;8.20;;
48403;SDS011;34202;52.536;6.042;2023-06-19T11:20:47;14.50;;;7.40;;
48403;SDS011;34202;52.536;6.042;2023-06-19T11:25:50;11.60;;;7.40;;
48403;SDS011;34202;52.536;6.042;2023-06-19T11:30:57;9.10;;;7.10;;
48403;SDS011;34202;52.536;6.042;2023-06-19T11:35:59;11.00;;;8.00;;
48403;SDS011;34202;52.536;6.042;2023-06-19T11:41:00;8.40;;;7.30;;
48403;SDS011;34202;52.536;6.042;2023-06-19T11:46:02;9.40;;;7.60;;
48403;SDS011;34202;52.536;6.042;2023-06-19T11:51:04;8.90;;;7.70;;
48403;SDS011;34202;52.536;6.042;2023-06-19T11:56:04;10.30;;;7.30;;
48403;SDS011;34202;52.536;6.042;2023-06-19T12:01:05;13.90;;;9.20;;
48403;SDS011;34202;52.536;6.042;2023-06-19T12:06:05;14.90;;;10.30;;
48403;SDS011;34202;52.536;6.042;2023-06-19T12:11:06;9.90;;;7.50;;
48403;SDS011;34202;52.536;6.042;2023-06-19T12:16:13;7.90;;;7.20;;
48403;SDS011;34202;52.536;6.042;2023-06-19T12:21:14;9.20;;;8.30;;
48403;SDS011;34202;52.536;6.042;2023-06-19T12:26:14;10.20;;;9.20;;
48403;SDS011;34202;52.536;6.042;2023-06-19T12:31:14;8.40;;;7.00;;
48403;SDS011;34202;52.536;6.042;2023-06-19T12:36:15;10.20;;;8.00;;
48403;SDS011;34202;52.536;6.042;2023-06-19T12:41:15;9.10;;;7.60;;
48403;SDS011;34202;52.536;6.042;2023-06-19T12:46:15;9.80;;;7.50;;
48403;SDS011;34202;52.536;6.042;2023-06-19T12:51:17;7.20;;;6.20;;
48403;SDS011;34202;52.536;6.042;2023-06-19T12:56:18;6.50;;;5.50;;
48403;SDS011;34202;52.536;6.042;2023-06-19T13:01:18;8.30;;;5.00;;
48403;SDS011;34202;52.536;6.042;2023-06-19T13:06:19;6.90;;;5.60;;
48403;SDS011;34202;52.536;6.042;2023-06-19T13:11:19;5.50;;;5.00;;
48403;SDS011;34202;52.536;6.042;2023-06-19T13:16:20;6.40;;;5.30;;
48403;SDS011;34202;52.536;6.042;2023-06-19T13:21:20;8.90;;;4.30;;
48403;SDS011;34202;52.536;6.042;2023-06-19T13:26:21;5.50;;;4.90;;
48403;SDS011;34202;52.536;6.042;2023-06-19T13:31:21;5.00;;;4.40;;
48403;SDS011;34202;52.536;6.042;2023-06-19T13:36:21;6.60;;;4.70;;
48403;SDS011;34202;52.536;6.042;2023-06-19T13:41:23;5.70;;;4.70;;
48403;SDS011;34202;52.536;6.042;2023-06-19T13:46:24;4.90;;;4.40;;
48403;SDS011;34202;52.536;6.042;2023-06-19T13:51:24;5.00;;;4.20;;
48403;SDS011;34202;52.536;6.042;2023-06-19T13:56:25;5.90;;;5.40;;
48403;SDS011;34202;52.536;6.042;2023-06-19T14:01:25;5.20;;;4.70;;
48403;SDS011;34202;52.536;6.042;2023-06-19T14:06:26;4.90;;;4.50;;
48403;SDS011;34202;52.536;6.042;2023-06-19T14:11:26;7.10;;;5.00;;
48403;SDS011;34202;52.536;6.042;2023-06-19T14:16:26;9.30;;;5.00;;
48403;SDS011;34202;52.536;6.042;2023-06-19T14:21:27;6.50;;;5.40;;
48403;SDS011;34202;52.536;6.042;2023-06-19T14:26:27;5.60;;;3.90;;
48403;SDS011;34202;52.536;6.042;2023-06-19T14:31:28;6.10;;;4.90;;
48403;SDS011;34202;52.536;6.042;2023-06-19T14:36:28;6.00;;;4.90;;
48403;SDS011;34202;52.536;6.042;2023-06-19T14:41:28;6.10;;;5.00;;
48403;SDS011;34202;52.536;6.042;2023-06-19T14:46:29;5.40;;;4.30;;
48403;SDS011;34202;52.536;6.042;2023-06-19T14:51:31;6.20;;;5.00;;
48403;SDS011;34202;52.536;6.042;2023-06-19T14:56:31;7.40;;;5.10;;
48403;SDS011;34202;52.536;6.042;2023-06-19T15:01:32;10.90;;;6.40;;
48403;SDS011;34202;52.536;6.042;2023-06-19T15:06:32;9.90;;;6.40;;
48403;SDS011;34202;52.536;6.042;2023-06-19T15:11:34;8.40;;;7.30;;
48403;SDS011;34202;52.536;6.042;2023-06-19T15:16:35;10.00;;;6.20;;
48403;SDS011;34202;52.536;6.042;2023-06-19T15:21:35;6.50;;;5.60;;
48403;SDS011;34202;52.536;6.042;2023-06-19T15:26:35;7.70;;;6.20;;
48403;SDS011;34202;52.536;6.042;2023-06-19T15:31:36;7.50;;;6.40;;
48403;SDS011;34202;52.536;6.042;2023-06-19T15:36:36;10.00;;;7.30;;
48403;SDS011;34202;52.536;6.042;2023-06-19T15:41:36;7.60;;;6.80;;
48403;SDS011;34202;52.536;6.042;2023-06-19T15:46:37;7.40;;;5.70;;
48403;SDS011;34202;52.536;6.042;2023-06-19T15:51:38;9.10;;;6.30;;
48403;SDS011;34202;52.536;6.042;2023-06-19T15:56:38;7.50;;;5.40;;
48403;SDS011;34202;52.536;6.042;2023-06-19T16:01:39;8.80;;;6.20;;
48403;SDS011;34202;52.536;6.042;2023-06-19T16:06:39;7.70;;;5.10;;
48403;SDS011;34202;52.536;6.042;2023-06-19T16:11:41;7.30;;;5.10;;
48403;SDS011;34202;52.536;6.042;2023-06-19T16:16:41;6.80;;;5.50;;
48403;SDS011;34202;52.536;6.042;2023-06-19T16:21:42;10.30;;;5.90;;
48403;SDS011;34202;52.536;6.042;2023-06-19T16:26:42;6.30;;;5.40;;
48403;SDS011;34202;52.536;6.042;2023-06-19T16:31:43;10.00;;;6.10;;
48403;SDS011;34202;52.536;6.042;2023-06-19T16:36:43;6.50;;;5.40;;
48403;SDS011;34202;52.536;6.042;2023-06-19T16:41:44;5.50;;;5.00;;
48403;SDS011;34202;52.536;6.042;2023-06-19T16:46:45;9.40;;;5.40;;
48403;SDS011;34202;52.536;6.042;2023-06-19T16:51:46;5.30;;;4.70;;
48403;SDS011;34202;52.536;6.042;2023-06-19T16:56:47;6.30;;;5.00;;
48403;SDS011;34202;52.536;6.042;2023-06-19T17:01:47;5.70;;;4.10;;
48403;SDS011;34202;52.536;6.042;2023-06-19T17:06:48;6.80;;;5.20;;
48403;SDS011;34202;52.536;6.042;2023-06-19T17:11:48;5.60;;;5.00;;
48403;SDS011;34202;52.536;6.042;2023-06-19T17:16:49;7.00;;;4.80;;
48403;SDS011;34202;52.536;6.042;2023-06-19T17:21:50;8.50;;;5.10;;
48403;SDS011;34202;52.536;6.042;2023-06-19T17:26:51;10.00;;;5.20;;
48403;SDS011;34202;52.536;6.042;2023-06-19T17:31:57;12.80;;;5.50;;
48403;SDS011;34202;52.536;6.042;2023-06-19T17:36:57;5.90;;;4.80;;
48403;SDS011;34202;52.536;6.042;2023-06-19T17:41:57;4.90;;;4.20;;
48403;SDS011;34202;52.536;6.042;2023-06-19T17:46:58;6.30;;;5.20;;
48403;SDS011;34202;52.536;6.042;2023-06-19T17:51:58;5.50;;;4.80;;
48403;SDS011;34202;52.536;6.042;2023-06-19T17:56:59;7.60;;;5.00;;
48403;SDS011;34202;52.536;6.042;2023-06-19T18:01:59;7.50;;;4.80;;
48403;SDS011;34202;52.536;6.042;2023-06-19T18:06:59;6.90;;;4.70;;
48403;SDS011;34202;52.536;6.042;2023-06-19T18:12:00;4.90;;;3.90;;
48403;SDS011;34202;52.536;6.042;2023-06-19T18:17:00;7.30;;;5.80;;
48403;SDS011;34202;52.536;6.042;2023-06-19T18:22:03;11.50;;;4.30;;
48403;SDS011;34202;52.536;6.042;2023-06-19T18:27:04;7.40;;;4.60;;
48403;SDS011;34202;52.536;6.042;2023-06-19T18:32:06;5.50;;;4.60;;
48403;SDS011;34202;52.536;6.042;2023-06-19T18:37:07;5.40;;;4.80;;
48403;SDS011;34202;52.536;6.042;2023-06-19T18:42:07;7.30;;;5.30;;
48403;SDS011;34202;52.536;6.042;2023-06-19T18:47:08;6.90;;;4.80;;
48403;SDS011;34202;52.536;6.042;2023-06-19T18:52:08;6.90;;;4.70;;
48403;SDS011;34202;52.536;6.042;2023-06-19T18:57:08;8.10;;;4.90;;
48403;SDS011;34202;52.536;6.042;2023-06-19T19:02:09;6.30;;;4.80;;
48403;SDS011;34202;52.536;6.042;2023-06-19T19:07:11;6.50;;;4.50;;
48403;SDS011;34202;52.536;6.042;2023-06-19T19:12:11;5.30;;;4.90;;
48403;SDS011;34202;52.536;6.042;2023-06-19T19:17:14;9.10;;;5.40;;
48403;SDS011;34202;52.536;6.042;2023-06-19T19:22:14;6.30;;;5.60;;
48403;SDS011;34202;52.536;6.042;2023-06-19T19:27:15;11.70;;;6.70;;
48403;SDS011;34202;52.536;6.042;2023-06-19T19:32:16;9.00;;;6.80;;
48403;SDS011;34202;52.536;6.042;2023-06-19T19:37:21;6.50;;;4.90;;
48403;SDS011;34202;52.536;6.042;2023-06-19T19:42:23;6.00;;;5.20;;
48403;SDS011;34202;52.536;6.042;2023-06-19T19:47:26;7.20;;;6.20;;
48403;SDS011;34202;52.536;6.042;2023-06-19T19:52:27;7.20;;;6.40;;
48403;SDS011;34202;52.536;6.042;2023-06-19T19:57:27;7.60;;;6.50;;
48403;SDS011;34202;52.536;6.042;2023-06-19T20:02:28;8.00;;;7.10;;
48403;SDS011;34202;52.536;6.042;2023-06-19T20:07:28;10.90;;;7.50;;
48403;SDS011;34202;52.536;6.042;2023-06-19T20:12:28;10.30;;;6.50;;
48403;SDS011;34202;52.536;6.042;2023-06-19T20:17:29;9.40;;;7.10;;
48403;SDS011;34202;52.536;6.042;2023-06-19T20:22:29;8.60;;;7.30;;
48403;SDS011;34202;52.536;6.042;2023-06-19T20:27:29;12.40;;;7.70;;
48403;SDS011;34202;52.536;6.042;2023-06-19T20:32:30;8.10;;;7.30;;
48403;SDS011;34202;52.536;6.042;2023-06-19T20:37:30;9.60;;;7.70;;
48403;SDS011;34202;52.536;6.042;2023-06-19T20:42:33;7.90;;;6.90;;
48403;SDS011;34202;52.536;6.042;2023-06-19T20:47:34;9.20;;;6.10;;
48403;SDS011;34202;52.536;6.042;2023-06-19T20:52:34;8.60;;;7.00;;
48403;SDS011;34202;52.536;6.042;2023-06-19T20:57:34;9.90;;;6.80;;
48403;SDS011;34202;52.536;6.042;2023-06-19T21:02:38;9.70;;;6.80;;
48403;SDS011;34202;52.536;6.042;2023-06-19T21:07:38;10.80;;;6.50;;
48403;SDS011;34202;52.536;6.042;2023-06-19T21:12:39;7.80;;;6.60;;
48403;SDS011;34202;52.536;6.042;2023-06-19T21:17:39;8.70;;;6.10;;
48403;SDS011;34202;52.536;6.042;2023-06-19T21:22:40;8.30;;;6.00;;
48403;SDS011;34202;52.536;6.042;2023-06-19T21:27:40;12.60;;;7.20;;
48403;SDS011;34202;52.536;6.042;2023-06-19T21:32:41;8.90;;;6.50;;
48403;SDS011;34202;52.536;6.042;2023-06-19T21:37:41;12.20;;;6.30;;
48403;SDS011;34202;52.536;6.042;2023-06-19T21:42:41;7.50;;;6.80;;
48403;SDS011;34202;52.536;6.042;2023-06-19T21:47:42;13.10;;;7.50;;
48403;SDS011;34202;52.536;6.042;2023-06-19T21:52:42;9.30;;;7.20;;
48403;SDS011;34202;52.536;6.042;2023-06-19T21:57:42;11.80;;;7.40;;
48403;SDS011;34202;52.536;6.042;2023-06-19T22:02:43;12.00;;;7.80;;
48403;SDS011;34202;52.536;6.042;2023-06-19T22:07:43;8.50;;;7.50;;
48403;SDS011;34202;52.536;6.042;2023-06-19T22:12:44;9.60;;;7.60;;
48403;SDS011;34202;52.536;6.042;2023-06-19T22:17:44;8.80;;;7.60;;
48403;SDS011;34202;52.536;6.042;2023-06-19T22:22:45;13.20;;;7.50;;
48403;SDS011;34202;52.536;6.042;2023-06-19T22:27:46;8.50;;;7.40;;
48403;SDS011;34202;52.536;6.042;2023-06-19T22:32:47;9.80;;;7.50;;
48403;SDS011;34202;52.536;6.042;2023-06-19T22:37:48;10.40;;;7.20;;
48403;SDS011;34202;52.536;6.042;2023-06-19T22:42:48;10.40;;;6.60;;
48403;SDS011;34202;52.536;6.042;2023-06-19T22:47:49;8.60;;;6.50;;
48403;SDS011;34202;52.536;6.042;2023-06-19T22:52:49;9.30;;;6.90;;
48403;SDS011;34202;52.536;6.042;2023-06-19T22:57:50;8.10;;;7.00;;
48403;SDS011;34202;52.536;6.042;2023-06-19T23:02:50;11.10;;;7.10;;
48403;SDS011;34202;52.536;6.042;2023-06-19T23:07:51;10.10;;;7.90;;
48403;SDS011;34202;52.536;6.042;2023-06-19T23:12:51;11.70;;;8.00;;
48403;SDS011;34202;52.536;6.042;2023-06-19T23:17:52;8.60;;;6.90;;
48403;SDS011;34202;52.536;6.042;2023-06-19T23:22:53;11.60;;;8.90;;
48403;SDS011;34202;52.536;6.042;2023-06-19T23:27:53;9.60;;;7.20;;
48403;SDS011;34202;52.536;6.042;2023-06-19T23:32:53;9.80;;;7.50;;
48403;SDS011;34202;52.536;6.042;2023-06-19T23:37:54;9.50;;;7.20;;
48403;SDS011;34202;52.536;6.042;2023-06-19T23:42:56;9.60;;;8.60;;
48403;SDS011;34202;52.536;6.042;2023-06-19T23:47:56;12.70;;;8.60;;
48403;SDS011;34202;52.536;6.042;2023-06-19T23:52:57;10.50;;;7.70;;
48403;SDS011;34202;52.536;6.042;2023-06-19T23:57:57;12.00;;;8.70;;
